Time;durP1;ratioP1;P1;durP2;ratioP2;P2;SDS_P1;SDS_P2;PMS_P1;PMS_P2;Temp;Humidity;BMP_temperature;BMP_pressure;BME280_temperature;BME280_humidity;BME280_pressure;Samples;Min_cycle;Max_cycle;Signal;HPM_P1;HPM_P2
2021/10/10 00:00:13;;;;;;;69.05;38.63;;;11.50;99.40;;;;;;5068004;28;20198;-73
2021/10/10 00:02:39;;;;;;;74.60;40.78;;;11.50;99.40;;;;;;5059528;28;20232;-73
2021/10/10 00:05:05;;;;;;;71.93;39.03;;;11.50;99.50;;;;;;5011807;28;20188;-73
2021/10/10 00:07:30;;;;;;;68.15;39.15;;;11.50;99.60;;;;;;5017212;28;20212;-74
2021/10/10 00:09:56;;;;;;;61.65;36.55;;;11.40;99.60;;;;;;5010241;28;20199;-74
2021/10/10 00:12:22;;;;;;;72.30;38.10;;;11.40;99.60;;;;;;5007659;28;20192;-74
2021/10/10 00:14:47;;;;;;;75.40;39.72;;;11.40;99.70;;;;;;5008802;28;20216;-74
2021/10/10 00:17:13;;;;;;;76.72;41.75;;;11.40;99.70;;;;;;5008183;28;20239;-77
2021/10/10 00:19:39;;;;;;;70.10;41.22;;;11.40;99.80;;;;;;5008623;28;20209;-73
2021/10/10 00:22:05;;;;;;;74.18;39.90;;;11.40;99.80;;;;;;5019405;28;20186;-75
2021/10/10 00:24:30;;;;;;;70.57;40.15;;;11.40;99.90;;;;;;5014332;28;20202;-75
2021/10/10 00:26:56;;;;;;;68.03;38.85;;;11.30;99.90;;;;;;5007337;28;20184;-76
2021/10/10 00:29:22;;;;;;;59.50;35.22;;;11.30;99.90;;;;;;5008784;28;20204;-75
2021/10/10 00:31:47;;;;;;;59.47;34.25;;;11.20;99.90;;;;;;5008247;28;20239;-76
2021/10/10 00:34:13;;;;;;;71.78;38.40;;;11.20;99.90;;;;;;5020479;28;20547;-75
2021/10/10 00:36:38;;;;;;;66.53;36.88;;;11.20;99.90;;;;;;5011287;28;20195;-74
2021/10/10 00:39:04;;;;;;;60.95;35.90;;;11.20;99.90;;;;;;5006114;28;20642;-75
2021/10/10 00:41:30;;;;;;;61.30;35.53;;;11.20;99.90;;;;;;5008006;28;20275;-76
2021/10/10 00:43:55;;;;;;;65.05;36.65;;;11.20;99.90;;;;;;5006910;28;20198;-74
2021/10/10 00:46:21;;;;;;;63.47;36.05;;;11.20;99.90;;;;;;5019272;28;20192;-74
2021/10/10 00:48:47;;;;;;;61.28;35.72;;;11.10;99.90;;;;;;5012025;28;20204;-76
2021/10/10 00:51:13;;;;;;;63.42;36.10;;;11.10;99.90;;;;;;5007665;28;20185;-75
2021/10/10 00:53:39;;;;;;;62.92;35.13;;;11.10;99.90;;;;;;5006325;28;20631;-76
2021/10/10 00:56:06;;;;;;;63.10;36.42;;;11.10;99.90;;;;;;5008059;28;20275;-75
2021/10/10 00:58:32;;;;;;;60.30;34.50;;;11.10;99.90;;;;;;5032543;28;20188;-75
2021/10/10 01:00:58;;;;;;;64.38;34.92;;;11.00;99.90;;;;;;5010674;28;20189;-74
2021/10/10 01:03:24;;;;;;;68.32;36.72;;;11.00;99.90;;;;;;5056308;28;20219;-74
2021/10/10 01:05:51;;;;;;;62.47;36.03;;;11.00;99.90;;;;;;5064819;28;20190;-75
2021/10/10 01:08:18;;;;;;;61.20;35.78;;;10.90;99.90;;;;;;5080698;28;20214;-75
2021/10/10 01:10:45;;;;;;;62.10;36.45;;;10.90;99.90;;;;;;5072154;28;20222;-75
2021/10/10 01:13:13;;;;;;;69.05;37.35;;;10.90;99.90;;;;;;5054621;28;20190;-76
2021/10/10 01:15:39;;;;;;;64.03;37.10;;;10.90;99.90;;;;;;5072839;28;20701;-75
2021/10/10 01:18:04;;;;;;;73.63;37.75;;;10.90;99.90;;;;;;5052668;28;20194;-74
2021/10/10 01:20:44;;;;;;;64.22;37.83;;;10.80;99.90;;;;;;5071558;28;20182;-75
2021/10/10 01:23:10;;;;;;;68.65;37.55;;;10.80;99.90;;;;;;5073429;28;20186;-76
2021/10/10 01:25:36;;;;;;;69.68;37.72;;;10.80;99.90;;;;;;5070970;28;20232;-75
2021/10/10 01:28:03;;;;;;;70.10;39.63;;;10.80;99.90;;;;;;5073852;28;20206;-77
2021/10/10 01:30:28;;;;;;;69.78;38.80;;;10.70;99.90;;;;;;5073695;28;20186;-75
2021/10/10 01:32:55;;;;;;;66.60;38.00;;;10.70;99.90;;;;;;5083125;28;20592;-76
2021/10/10 01:35:21;;;;;;;69.03;38.42;;;10.70;99.90;;;;;;5069612;28;20189;-75
2021/10/10 01:37:47;;;;;;;69.78;37.55;;;10.70;99.90;;;;;;5083636;28;20655;-75
2021/10/10 01:40:13;;;;;;;68.53;37.28;;;10.70;99.90;;;;;;5088257;28;20239;-75
2021/10/10 01:42:38;;;;;;;66.43;36.53;;;10.60;99.90;;;;;;5053372;28;20187;-74
2021/10/10 01:45:13;;;;;;;65.78;37.20;;;10.60;99.90;;;;;;5055317;28;20195;-74
2021/10/10 01:47:38;;;;;;;65.07;37.38;;;10.60;99.90;;;;;;5069603;28;20211;-74
2021/10/10 01:50:04;;;;;;;65.88;36.58;;;10.60;99.90;;;;;;5055056;28;20183;-73
2021/10/10 01:52:30;;;;;;;62.95;35.55;;;10.50;99.90;;;;;;5052953;28;20179;-73
2021/10/10 01:54:55;;;;;;;65.90;36.72;;;10.50;99.90;;;;;;5073591;28;20192;-74
2021/10/10 01:57:21;;;;;;;65.85;36.20;;;10.60;99.90;;;;;;5071851;28;20542;-73
2021/10/10 01:59:47;;;;;;;62.83;37.72;;;10.50;99.90;;;;;;5072363;28;20193;-74
2021/10/10 02:02:12;;;;;;;61.00;35.78;;;10.50;99.90;;;;;;5054097;28;20234;-74
2021/10/10 02:04:38;;;;;;;58.90;34.67;;;10.50;99.90;;;;;;5070029;28;20246;-74
2021/10/10 02:07:04;;;;;;;63.45;36.05;;;10.50;99.90;;;;;;5072511;28;20240;-74
2021/10/10 02:09:30;;;;;;;61.60;36.28;;;10.40;99.90;;;;;;5070307;28;20182;-74
2021/10/10 02:11:55;;;;;;;59.22;35.97;;;10.40;99.90;;;;;;5071310;28;20191;-74
2021/10/10 02:14:21;;;;;;;60.40;35.15;;;10.40;99.90;;;;;;5072682;28;20190;-74
2021/10/10 02:16:46;;;;;;;53.83;32.83;;;10.40;99.90;;;;;;5070801;28;20228;-74
2021/10/10 02:19:12;;;;;;;58.30;33.85;;;10.40;99.90;;;;;;5073165;28;20194;-74
2021/10/10 02:21:38;;;;;;;59.00;33.35;;;10.40;99.90;;;;;;5070058;28;20255;-74
2021/10/10 02:24:04;;;;;;;61.08;34.58;;;10.30;99.90;;;;;;5083555;28;20194;-73
2021/10/10 02:26:30;;;;;;;63.90;33.95;;;10.30;99.90;;;;;;5066038;28;20186;-73
2021/10/10 02:28:55;;;;;;;61.08;33.85;;;10.30;99.90;;;;;;5083827;28;20252;-73
2021/10/10 02:31:21;;;;;;;62.65;34.53;;;10.30;99.90;;;;;;5068948;28;20198;-73
2021/10/10 02:33:49;;;;;;;63.20;35.83;;;10.20;99.90;;;;;;5068953;28;20181;-75
2021/10/10 02:36:15;;;;;;;65.38;35.78;;;10.20;99.90;;;;;;5069567;28;20186;-75
2021/10/10 02:38:41;;;;;;;59.83;35.15;;;10.20;99.90;;;;;;5084296;28;20647;-75
2021/10/10 02:41:06;;;;;;;64.60;34.38;;;10.10;99.90;;;;;;5043941;28;20236;-75
2021/10/10 02:43:32;;;;;;;61.95;34.83;;;10.10;99.90;;;;;;5080050;28;20222;-77
2021/10/10 02:45:57;;;;;;;64.47;35.95;;;10.10;99.90;;;;;;5066003;28;20200;-76
2021/10/10 02:48:23;;;;;;;61.60;35.28;;;10.10;99.90;;;;;;5069512;28;20616;-75
2021/10/10 02:50:48;;;;;;;57.20;34.35;;;10.10;99.90;;;;;;5051442;28;20206;-76
2021/10/10 02:53:14;;;;;;;64.32;35.90;;;10.00;99.90;;;;;;5068874;28;20562;-76
2021/10/10 02:55:40;;;;;;;60.00;34.38;;;10.00;99.90;;;;;;5065585;28;20195;-75
2021/10/10 02:58:07;;;;;;;64.15;34.97;;;10.00;99.90;;;;;;5068481;28;20293;-76
2021/10/10 03:00:32;;;;;;;53.88;31.83;;;10.00;99.90;;;;;;5067582;28;20650;-76
2021/10/10 03:02:59;;;;;;;50.95;30.90;;;10.00;99.90;;;;;;5050932;28;20230;-75
2021/10/10 03:05:25;;;;;;;48.67;29.77;;;9.90;99.90;;;;;;5068433;28;20240;-75
2021/10/10 03:07:51;;;;;;;52.80;31.83;;;9.90;99.90;;;;;;5084126;28;20206;-75
2021/10/10 03:10:16;;;;;;;53.63;31.63;;;9.90;99.90;;;;;;5065825;28;20655;-75
2021/10/10 03:12:42;;;;;;;52.15;32.25;;;9.90;99.90;;;;;;5068455;28;20195;-75
2021/10/10 03:15:08;;;;;;;56.08;31.55;;;9.90;99.90;;;;;;5067705;28;20187;-74
2021/10/10 03:17:33;;;;;;;54.05;31.38;;;9.90;99.90;;;;;;5066241;28;20281;-74
2021/10/10 03:19:59;;;;;;;52.63;31.50;;;9.90;99.90;;;;;;5050875;28;20202;-73
2021/10/10 03:22:25;;;;;;;57.83;33.20;;;9.80;99.90;;;;;;5067310;28;20274;-74
2021/10/10 03:24:50;;;;;;;58.17;31.42;;;9.80;99.90;;;;;;5067260;28;20729;-74
2021/10/10 03:27:16;;;;;;;58.90;32.50;;;9.80;99.90;;;;;;5068142;28;20214;-73
2021/10/10 03:29:42;;;;;;;54.60;31.52;;;9.80;99.90;;;;;;5066158;28;20176;-74
2021/10/10 03:32:07;;;;;;;58.65;32.92;;;9.80;99.90;;;;;;5067500;28;20182;-73
2021/10/10 03:34:33;;;;;;;55.67;32.63;;;9.80;99.90;;;;;;5063262;28;20218;-75
2021/10/10 03:36:59;;;;;;;51.92;31.33;;;9.80;99.90;;;;;;5050096;28;20190;-75
2021/10/10 03:39:24;;;;;;;61.70;33.80;;;9.80;99.90;;;;;;5063983;28;20241;-74
2021/10/10 03:41:50;;;;;;;64.25;34.72;;;9.80;99.90;;;;;;5082473;28;20179;-75
2021/10/10 03:44:15;;;;;;;60.58;34.30;;;9.70;99.90;;;;;;5068380;28;20185;-75
2021/10/10 03:46:41;;;;;;;56.70;33.15;;;9.70;99.90;;;;;;5083470;28;20192;-75
2021/10/10 03:49:07;;;;;;;59.15;33.40;;;9.70;99.90;;;;;;5061685;28;20321;-73
2021/10/10 03:51:32;;;;;;;56.30;32.40;;;9.70;99.90;;;;;;5066798;28;20193;-73
2021/10/10 03:56:27;;;;;;;57.45;32.42;;;9.70;99.90;;;;;;5066981;28;20216;-72
2021/10/10 03:58:52;;;;;;;58.80;32.20;;;9.60;99.90;;;;;;5065768;28;20186;-74
2021/10/10 04:01:18;;;;;;;54.25;30.90;;;9.60;99.90;;;;;;5067387;28;20193;-73
2021/10/10 04:03:43;;;;;;;58.40;32.83;;;9.60;99.90;;;;;;5061655;28;20627;-72
2021/10/10 04:06:09;;;;;;;57.95;32.05;;;9.60;99.90;;;;;;5066319;28;20201;-72
2021/10/10 04:08:41;;;;;;;60.13;32.63;;;9.60;99.90;;;;;;5066771;28;20217;-73
2021/10/10 04:11:07;;;;;;;59.25;32.40;;;9.50;99.90;;;;;;5067434;28;20214;-73
2021/10/10 04:13:33;;;;;;;55.60;31.98;;;9.50;99.90;;;;;;5068226;28;20265;-74
2021/10/10 04:15:58;;;;;;;60.75;32.00;;;9.50;99.90;;;;;;5068053;28;20632;-74
2021/10/10 04:18:24;;;;;;;58.05;31.83;;;9.50;99.90;;;;;;5064288;28;20361;-74
2021/10/10 04:20:49;;;;;;;56.92;32.28;;;9.50;99.90;;;;;;5064634;28;20183;-74
2021/10/10 04:23:15;;;;;;;55.45;32.47;;;9.50;99.90;;;;;;5066449;28;20217;-74
2021/10/10 04:25:41;;;;;;;60.03;31.55;;;9.50;99.90;;;;;;5060717;28;20182;-76
2021/10/10 04:28:06;;;;;;;53.55;31.88;;;9.50;99.90;;;;;;5066283;28;20317;-76
2021/10/10 04:30:32;;;;;;;56.92;33.08;;;9.50;99.90;;;;;;5066630;28;20190;-75
2021/10/10 04:32:58;;;;;;;56.10;32.70;;;9.50;99.90;;;;;;5047570;28;20201;-77
2021/10/10 04:35:23;;;;;;;55.85;32.22;;;9.40;99.90;;;;;;5067402;28;20240;-75
2021/10/10 04:37:49;;;;;;;56.15;32.90;;;9.50;99.90;;;;;;5082144;28;20217;-74
2021/10/10 04:40:15;;;;;;;62.78;33.15;;;9.50;99.90;;;;;;5047136;28;20182;-77
2021/10/10 04:42:40;;;;;;;52.92;31.45;;;9.50;99.90;;;;;;5063960;28;20544;-75
2021/10/10 04:45:07;;;;;;;58.22;33.25;;;9.40;99.90;;;;;;5065865;28;20182;-74
2021/10/10 04:47:32;;;;;;;49.90;30.45;;;9.40;99.90;;;;;;5082199;28;20266;-75
2021/10/10 04:49:58;;;;;;;55.60;31.65;;;9.40;99.90;;;;;;5065613;28;20332;-75
2021/10/10 04:52:24;;;;;;;54.75;32.03;;;9.40;99.90;;;;;;5066432;28;20711;-74
2021/10/10 04:54:50;;;;;;;52.33;30.92;;;9.40;99.90;;;;;;5064810;28;20183;-75
2021/10/10 04:57:16;;;;;;;57.05;31.75;;;9.40;99.90;;;;;;5066622;28;20191;-77
2021/10/10 04:59:49;;;;;;;55.42;31.40;;;9.40;99.90;;;;;;5044512;28;20218;-74
2021/10/10 05:02:19;;;;;;;56.22;31.73;;;9.40;99.90;;;;;;5062053;28;20317;-75
2021/10/10 05:04:44;;;;;;;58.53;33.85;;;9.40;99.90;;;;;;5060081;28;20175;-76
2021/10/10 05:07:10;;;;;;;55.85;32.67;;;9.40;99.90;;;;;;5058790;28;20205;-76
2021/10/10 05:09:36;;;;;;;56.35;34.33;;;9.40;99.90;;;;;;5040701;28;20178;-75
2021/10/10 05:12:02;;;;;;;62.60;33.70;;;9.40;99.90;;;;;;5065495;28;20187;-77
2021/10/10 05:14:27;;;;;;;59.33;33.25;;;9.40;99.90;;;;;;5063370;28;20189;-78
2021/10/10 05:16:53;;;;;;;57.63;33.13;;;9.40;99.90;;;;;;5061278;28;20620;-75
2021/10/10 05:19:18;;;;;;;53.20;32.15;;;9.40;99.90;;;;;;5060774;28;20179;-76
2021/10/10 05:21:44;;;;;;;60.22;33.22;;;9.40;99.90;;;;;;5065979;28;20221;-72
2021/10/10 05:24:09;;;;;;;54.38;32.70;;;9.40;99.90;;;;;;5064205;28;20604;-75
2021/10/10 05:26:35;;;;;;;54.30;32.63;;;9.30;99.90;;;;;;5046882;28;20191;-75
2021/10/10 05:29:01;;;;;;;56.35;32.35;;;9.30;99.90;;;;;;5064788;28;20210;-75
2021/10/10 05:31:26;;;;;;;59.88;32.63;;;9.40;99.90;;;;;;5064001;28;21032;-73
2021/10/10 05:33:52;;;;;;;60.20;32.33;;;9.30;99.90;;;;;;5065244;28;20270;-74
2021/10/10 05:36:17;;;;;;;60.35;33.45;;;9.40;99.90;;;;;;5082849;28;20182;-74
2021/10/10 05:38:43;;;;;;;71.30;34.38;;;9.40;99.90;;;;;;5066436;28;20186;-74
2021/10/10 05:41:09;;;;;;;71.22;35.42;;;9.30;99.90;;;;;;5065538;28;20460;-74
2021/10/10 05:43:35;;;;;;;96.93;38.35;;;9.30;99.90;;;;;;5066446;28;20191;-74
2021/10/10 05:46:00;;;;;;;91.93;37.75;;;9.40;99.90;;;;;;5066059;28;20190;-74
2021/10/10 05:48:26;;;;;;;72.03;36.75;;;9.30;99.90;;;;;;5065229;28;20222;-74
2021/10/10 05:50:52;;;;;;;69.68;35.45;;;9.40;99.90;;;;;;5061376;28;20236;-75
2021/10/10 05:53:18;;;;;;;72.28;36.72;;;9.30;99.90;;;;;;5048651;28;20179;-74
2021/10/10 05:55:43;;;;;;;70.25;34.13;;;9.30;99.90;;;;;;5066273;28;20186;-74
2021/10/10 05:58:16;;;;;;;66.38;35.25;;;9.30;99.90;;;;;;5071520;28;20260;-75
2021/10/10 06:00:42;;;;;;;71.28;36.38;;;9.30;99.90;;;;;;5066664;28;20194;-73
2021/10/10 06:03:08;;;;;;;72.47;37.08;;;9.30;99.90;;;;;;5052167;28;20222;-76
2021/10/10 06:05:35;;;;;;;64.32;35.92;;;9.30;99.90;;;;;;5065198;28;20201;-74
2021/10/10 06:08:00;;;;;;;68.93;36.10;;;9.30;99.90;;;;;;5068497;28;20218;-77
2021/10/10 06:10:26;;;;;;;58.58;32.95;;;9.40;99.90;;;;;;5069125;28;20182;-74
2021/10/10 06:12:52;;;;;;;53.08;31.52;;;9.40;99.90;;;;;;5070341;28;20205;-75
2021/10/10 06:15:18;;;;;;;58.45;32.20;;;9.40;99.90;;;;;;5070629;28;20631;-74
2021/10/10 06:17:44;;;;;;;47.83;30.63;;;9.40;99.90;;;;;;5069606;28;20187;-75
2021/10/10 06:20:10;;;;;;;44.80;28.30;;;9.40;99.90;;;;;;5048918;28;20290;-76
2021/10/10 06:22:36;;;;;;;39.65;27.00;;;9.40;99.90;;;;;;5049927;28;20648;-75
2021/10/10 06:25:03;;;;;;;45.80;28.30;;;9.50;99.90;;;;;;5065469;28;20190;-74
2021/10/10 06:27:28;;;;;;;40.78;27.48;;;9.50;99.90;;;;;;5067868;28;20210;-76
2021/10/10 06:29:54;;;;;;;44.10;27.80;;;9.50;99.90;;;;;;5068340;28;20693;-74
2021/10/10 06:32:20;;;;;;;40.35;26.63;;;9.50;99.90;;;;;;5084994;28;20266;-75
2021/10/10 06:34:45;;;;;;;41.38;26.45;;;9.50;99.90;;;;;;5049290;28;20240;-72
2021/10/10 06:37:11;;;;;;;45.30;29.17;;;9.50;99.90;;;;;;5069639;28;20190;-72
2021/10/10 06:39:37;;;;;;;48.10;28.40;;;9.50;99.90;;;;;;5067521;28;20903;-75
2021/10/10 06:42:03;;;;;;;44.95;27.85;;;9.50;99.90;;;;;;5066280;28;20213;-76
2021/10/10 06:44:30;;;;;;;49.15;29.83;;;9.60;99.90;;;;;;5067317;28;20228;-76
2021/10/10 06:46:56;;;;;;;45.35;29.13;;;9.60;99.90;;;;;;5069790;28;20179;-75
2021/10/10 06:49:22;;;;;;;47.45;30.75;;;9.60;99.90;;;;;;5068171;28;20217;-75
2021/10/10 06:51:47;;;;;;;50.03;30.45;;;9.60;99.90;;;;;;5063054;28;20639;-76
2021/10/10 06:54:13;;;;;;;54.83;31.20;;;9.70;99.90;;;;;;5050094;28;20957;-75
2021/10/10 06:56:39;;;;;;;50.83;30.85;;;9.70;99.90;;;;;;5068195;28;20186;-76
2021/10/10 06:59:05;;;;;;;52.63;31.98;;;9.80;99.90;;;;;;5066562;28;20713;-75
2021/10/10 07:01:32;;;;;;;52.97;32.20;;;9.80;99.90;;;;;;5065719;28;20221;-76
2021/10/10 07:03:58;;;;;;;56.33;32.78;;;9.90;99.90;;;;;;5062449;28;20198;-77
2021/10/10 07:06:24;;;;;;;56.80;33.92;;;9.90;99.90;;;;;;5068656;28;20178;-76
2021/10/10 07:08:50;;;;;;;59.33;35.17;;;10.00;99.90;;;;;;5067581;28;20268;-74
2021/10/10 07:11:16;;;;;;;63.25;35.22;;;10.10;99.90;;;;;;5069796;28;20178;-75
2021/10/10 07:13:42;;;;;;;58.22;33.25;;;10.20;99.90;;;;;;5066690;28;20270;-76
2021/10/10 07:16:07;;;;;;;55.80;34.60;;;10.20;99.90;;;;;;5049211;28;20291;-75
2021/10/10 07:18:47;;;;;;;60.40;34.03;;;10.30;99.90;;;;;;5066190;28;20187;-73
2021/10/10 07:24:05;;;;;;;62.17;37.30;;;10.40;99.90;;;;;;5050808;28;20220;-74
2021/10/10 07:26:30;;;;;;;64.47;36.50;;;10.50;99.90;;;;;;5068155;28;20205;-74
2021/10/10 07:28:56;;;;;;;70.38;38.42;;;10.60;99.90;;;;;;5066839;28;20205;-72
2021/10/10 07:31:21;;;;;;;79.95;43.53;;;10.70;99.90;;;;;;5083217;28;20650;-72
2021/10/10 07:33:47;;;;;;;69.30;39.20;;;10.70;99.90;;;;;;5068414;28;20678;-73
2021/10/10 07:36:12;;;;;;;70.53;38.22;;;10.80;99.90;;;;;;5068791;28;20179;-74
2021/10/10 07:38:38;;;;;;;65.72;37.88;;;10.90;99.90;;;;;;5066615;28;20191;-73
2021/10/10 07:41:05;;;;;;;66.28;38.88;;;10.90;99.90;;;;;;5068676;28;20666;-72
2021/10/10 07:43:32;;;;;;;70.38;39.75;;;11.00;99.90;;;;;;5067602;28;20635;-71
2021/10/10 07:46:06;;;;;;;62.47;38.42;;;11.00;99.90;;;;;;5066344;28;20190;-72
2021/10/10 07:48:33;;;;;;;69.43;38.28;;;11.00;99.90;;;;;;5067214;28;20241;-72
2021/10/10 07:50:59;;;;;;;71.65;39.22;;;11.00;99.90;;;;;;5065624;28;20192;-73
2021/10/10 07:53:24;;;;;;;70.03;39.75;;;11.10;99.90;;;;;;5046049;28;20635;-73
2021/10/10 07:55:50;;;;;;;71.75;40.10;;;11.20;99.90;;;;;;5067901;28;20194;-73
2021/10/10 07:58:15;;;;;;;61.80;36.40;;;11.20;99.90;;;;;;5066888;28;20654;-73
2021/10/10 08:00:41;;;;;;;65.72;38.65;;;11.30;99.90;;;;;;5050394;28;20181;-71
2021/10/10 08:03:06;;;;;;;65.50;39.53;;;11.30;99.90;;;;;;5063549;28;20269;-73
2021/10/10 08:05:43;;;;;;;70.22;39.25;;;11.40;99.90;;;;;;5062257;28;20213;-73
2021/10/10 08:08:10;;;;;;;70.13;39.33;;;11.50;99.90;;;;;;5066132;28;20584;-74
2021/10/10 08:10:36;;;;;;;69.53;38.95;;;11.50;99.90;;;;;;5067069;28;20979;-74
2021/10/10 08:13:01;;;;;;;66.32;37.03;;;11.60;99.90;;;;;;5049584;28;20265;-75
2021/10/10 08:15:27;;;;;;;67.20;39.58;;;11.60;99.90;;;;;;5066634;28;20213;-75
2021/10/10 08:17:53;;;;;;;63.05;37.90;;;11.70;99.90;;;;;;5066413;28;20189;-73
2021/10/10 08:20:19;;;;;;;64.43;38.35;;;11.70;99.90;;;;;;5049293;28;20190;-72
2021/10/10 08:22:47;;;;;;;66.88;38.75;;;11.70;99.90;;;;;;5065232;28;20197;-72
2021/10/10 08:25:13;;;;;;;63.25;38.80;;;11.70;99.90;;;;;;5068299;28;20675;-73
2021/10/10 08:27:41;;;;;;;78.10;41.38;;;11.80;99.90;;;;;;5067902;28;20206;-73
2021/10/10 08:30:10;;;;;;;74.95;42.72;;;11.80;99.90;;;;;;5066845;28;20178;-74
2021/10/10 08:32:37;;;;;;;85.70;50.33;;;11.80;99.90;;;;;;5063520;28;20183;-74
2021/10/10 08:35:03;;;;;;;77.15;44.92;;;11.80;99.90;;;;;;5067634;28;20187;-73
2021/10/10 08:37:29;;;;;;;73.13;42.08;;;11.80;99.90;;;;;;5047419;28;20201;-74
2021/10/10 08:39:55;;;;;;;71.88;42.85;;;12.00;99.90;;;;;;5080600;28;20737;-74
2021/10/10 08:42:27;;;;;;;;;;;12.40;99.90;;;;;;5068782;28;20028;-73
2021/10/10 08:45:00;;;;;;;52.70;36.30;;;13.10;99.90;;;;;;5066525;28;20481;-72
2021/10/10 08:47:30;;;;;;;53.38;35.70;;;15.40;99.90;;;;;;5066789;28;20411;-73
2021/10/10 08:49:56;;;;;;;48.63;31.40;;;17.80;98.70;;;;;;5066716;28;20183;-73
2021/10/10 08:52:22;;;;;;;49.47;33.13;;;17.90;99.90;;;;;;5045850;28;20414;-73
2021/10/10 08:54:48;;;;;;;51.30;33.47;;;20.10;91.30;;;;;;5065618;28;20449;-73
2021/10/10 08:57:14;;;;;;;51.08;33.67;;;21.70;81.20;;;;;;5061880;28;20772;-72
2021/10/10 08:59:41;;;;;;;49.80;33.77;;;23.10;71.80;;;;;;5045740;28;20393;-72
2021/10/10 09:02:14;;;;;;;47.78;33.00;;;24.10;63.90;;;;;;5065244;28;20421;-73
2021/10/10 09:04:40;;;;;;;49.47;33.85;;;25.10;58.60;;;;;;5047443;28;20446;-72
2021/10/10 09:07:07;;;;;;;45.92;33.17;;;25.90;55.40;;;;;;5047830;28;20399;-71
2021/10/10 09:09:36;;;;;;;55.13;37.75;;;26.60;52.90;;;;;;5050021;28;20577;-72
2021/10/10 09:12:10;;;;;;;50.72;31.90;;;25.70;58.00;;;;;;5047212;28;20190;-72
2021/10/10 09:14:50;;;;;;;45.78;29.85;;;25.10;61.80;;;;;;5064633;28;20252;-73
2021/10/10 09:17:22;;;;;;;45.58;29.95;;;24.80;64.20;;;;;;5080241;28;20186;-73
2021/10/10 09:19:53;;;;;;;45.83;29.90;;;24.60;65.50;;;;;;5067177;28;20186;-73
2021/10/10 09:22:21;;;;;;;43.92;30.05;;;24.30;65.90;;;;;;5066907;28;20186;-73
2021/10/10 09:24:51;;;;;;;43.33;30.15;;;24.10;66.80;;;;;;5067577;28;20225;-72
2021/10/10 09:27:18;;;;;;;46.15;31.38;;;24.00;67.30;;;;;;5066907;28;20186;-72
2021/10/10 09:29:46;;;;;;;48.50;31.38;;;23.80;67.50;;;;;;5047432;28;20220;-72
2021/10/10 09:32:13;;;;;;;44.08;32.05;;;23.50;67.90;;;;;;5065429;28;20190;-73
2021/10/10 09:34:40;;;;;;;42.65;31.27;;;23.50;68.60;;;;;;5053272;28;20190;-72
2021/10/10 09:37:33;;;;;;;50.08;32.28;;;23.60;68.50;;;;;;5068905;28;20194;-72
2021/10/10 09:42:32;;;;;;;51.70;34.95;;;25.80;56.60;;;;;;5069827;28;20399;-73
2021/10/10 09:45:30;;;;;;;51.13;34.20;;;26.60;53.60;;;;;;5066839;28;20411;-73
2021/10/10 09:48:02;;;;;;;56.27;36.03;;;27.10;53.00;;;;;;5064786;28;20415;-71
2021/10/10 09:50:31;;;;;;;50.50;35.00;;;27.70;50.80;;;;;;5044625;28;20439;-71
2021/10/10 09:53:05;;;;;;;53.80;34.92;;;28.50;49.40;;;;;;5067819;28;20508;-71
2021/10/10 09:55:32;;;;;;;51.88;33.35;;;29.10;47.20;;;;;;5043825;28;20265;-75
2021/10/10 09:57:59;;;;;;;50.45;34.35;;;28.30;50.80;;;;;;5052948;28;20684;-73
2021/10/10 10:00:30;;;;;;;51.88;35.28;;;27.90;52.40;;;;;;5060977;28;20272;-73
2021/10/10 10:03:09;;;;;;;44.90;31.08;;;27.80;53.30;;;;;;5070334;28;20593;-74
2021/10/10 10:05:36;;;;;;;51.20;33.33;;;27.70;53.40;;;;;;5065143;28;20222;-72
2021/10/10 10:08:02;;;;;;;49.58;32.65;;;27.80;53.70;;;;;;5068715;28;20201;-72
2021/10/10 10:10:29;;;;;;;43.38;31.50;;;28.00;53.80;;;;;;5065574;28;20242;-72
2021/10/10 10:12:58;;;;;;;47.83;31.17;;;28.30;53.10;;;;;;5069986;28;20186;-73
2021/10/10 10:15:29;;;;;;;46.90;33.50;;;28.50;52.30;;;;;;5082834;28;20411;-72
2021/10/10 10:17:56;;;;;;;43.50;29.83;;;30.70;43.70;;;;;;5049851;28;20214;-72
2021/10/10 10:20:23;;;;;;;37.10;27.83;;;30.00;46.80;;;;;;5048565;28;20182;-72
2021/10/10 10:22:53;;;;;;;58.15;28.00;;;29.70;47.30;;;;;;5066502;28;20337;-72
2021/10/10 10:25:20;;;;;;;42.67;29.85;;;29.60;47.60;;;;;;5064270;28;20419;-71
2021/10/10 10:27:46;;;;;;;43.88;30.15;;;30.80;41.40;;;;;;5075502;28;21106;-73
2021/10/10 10:30:13;;;;;;;42.05;29.10;;;30.60;41.50;;;;;;5060665;28;20178;-72
2021/10/10 10:32:40;;;;;;;42.80;28.35;;;29.10;44.50;;;;;;5059534;28;20868;-75
2021/10/10 10:35:11;;;;;;;37.97;28.13;;;28.10;47.00;;;;;;5058623;28;20189;-73
2021/10/10 10:37:43;;;;;;;35.22;24.58;;;27.20;48.50;;;;;;5064317;28;20415;-74
2021/10/10 10:40:32;;;;;;;33.13;23.50;;;27.70;46.30;;;;;;5064343;28;20853;-73
2021/10/10 10:43:00;;;;;;;29.95;21.00;;;27.80;46.00;;;;;;5068423;28;20431;-72
2021/10/10 10:45:46;;;;;;;32.00;21.00;;;27.40;47.60;;;;;;5069562;28;20643;-73
2021/10/10 10:48:27;;;;;;;30.37;20.70;;;27.40;47.10;;;;;;5065203;28;20514;-76
2021/10/10 10:51:23;;;;;;;23.98;16.88;;;28.50;43.60;;;;;;5067146;28;20244;-73
2021/10/10 10:53:49;;;;;;;27.42;18.92;;;27.60;45.40;;;;;;5067379;28;20187;-74
2021/10/10 10:56:29;;;;;;;22.80;18.02;;;27.30;47.60;;;;;;5057800;28;20189;-71
2021/10/10 10:58:58;;;;;;;23.30;16.88;;;27.40;48.30;;;;;;5066296;28;20217;-72
2021/10/10 11:01:24;;;;;;;23.45;16.92;;;27.40;47.90;;;;;;5046807;28;20205;-74
2021/10/10 11:03:49;;;;;;;22.10;16.10;;;27.30;47.70;;;;;;5065276;28;20646;-72
2021/10/10 11:06:15;;;;;;;;;;;27.10;47.80;;;;;;5082643;28;20029;-72
2021/10/10 11:08:41;;;;;;;;;;;26.60;48.60;;;;;;5062518;28;19913;-74
2021/10/10 11:11:09;;;;;;;;;;;26.10;49.60;;;;;;5050677;28;20280;-75
2021/10/10 11:13:34;;;;;;;;;;;25.90;51.20;;;;;;5063781;28;19913;-74
2021/10/10 11:16:04;;;;;;;;;;;26.00;51.90;;;;;;5070629;28;19908;-72
2021/10/10 11:18:30;;;;;;;19.88;13.43;;;26.20;52.10;;;;;;5063647;28;20192;-73
2021/10/10 11:21:05;;;;;;;18.23;13.80;;;26.50;51.70;;;;;;5064152;28;20434;-73
2021/10/10 11:23:31;;;;;;;;;;;27.60;46.40;;;;;;5047047;28;20440;-73
2021/10/10 11:25:59;;;;;;;18.45;14.80;;;26.70;48.10;;;;;;5063709;28;20271;-71
2021/10/10 11:28:35;;;;;;;;;;;25.90;49.60;;;;;;5062655;28;20117;-73
2021/10/10 11:31:22;;;;;;;24.65;15.55;;;25.20;50.80;;;;;;5064144;28;19976;-73
2021/10/10 11:33:59;;;;;;;22.60;17.40;;;24.60;52.40;;;;;;5049183;28;20842;-73
2021/10/10 11:36:52;;;;;;;22.27;17.65;;;24.90;52.20;;;;;;5068469;28;20521;-73
2021/10/10 11:39:29;;;;;;;25.23;17.90;;;24.80;53.00;;;;;;5068879;28;20226;-75
2021/10/10 11:42:00;;;;;;;24.20;17.77;;;23.90;55.00;;;;;;5048815;28;20190;-71
2021/10/10 11:44:37;;;;;;;23.77;18.25;;;23.30;56.70;;;;;;5067190;28;20190;-72
2021/10/10 11:47:05;;;;;;;22.35;17.35;;;22.90;58.00;;;;;;5062597;28;20249;-71
2021/10/10 11:49:41;;;;;;;26.25;18.70;;;22.60;59.00;;;;;;5047693;28;20211;-73
2021/10/10 11:52:08;;;;;;;25.00;17.38;;;22.30;59.90;;;;;;5048385;28;20716;-71
2021/10/10 11:54:42;;;;;;;25.63;17.92;;;22.00;60.90;;;;;;5064115;28;20183;-71
2021/10/10 11:57:10;;;;;;;26.23;18.35;;;21.80;62.80;;;;;;5044414;28;20183;-72
2021/10/10 11:59:36;;;;;;;28.65;19.70;;;21.60;63.10;;;;;;5059995;28;20277;-70
2021/10/10 12:02:03;;;;;;;26.92;17.63;;;21.30;64.20;;;;;;5044462;28;20288;-72
2021/10/10 12:04:28;;;;;;;30.13;19.90;;;21.20;64.90;;;;;;5062445;28;20538;-72
2021/10/10 12:06:54;;;;;;;29.92;19.30;;;21.00;65.70;;;;;;5065778;28;20186;-72
2021/10/10 12:09:21;;;;;;;26.88;19.35;;;20.90;66.50;;;;;;5064474;28;20222;-73
2021/10/10 12:12:02;;;;;;;28.25;19.67;;;20.90;67.10;;;;;;5080690;28;20617;-72
2021/10/10 12:14:47;;;;;;;28.23;19.08;;;20.80;67.60;;;;;;5067219;28;20647;-75
2021/10/10 12:17:57;;;;;;;26.02;19.17;;;20.80;67.90;;;;;;5047676;28;20194;-71
2021/10/10 12:20:30;;;;;;;27.67;19.13;;;20.80;68.30;;;;;;4998526;28;20195;-71
2021/10/10 12:23:07;;;;;;;24.10;18.10;;;20.80;68.90;;;;;;5059362;28;20198;-72
2021/10/10 12:25:35;;;;;;;24.02;16.65;;;21.20;69.40;;;;;;5047932;28;20269;-73
2021/10/10 12:28:04;;;;;;;;;;;21.80;68.50;;;;;;5060889;28;20036;-72
2021/10/10 12:30:39;;;;;;;;;;;22.20;67.60;;;;;;5065831;28;19908;-72
2021/10/10 12:33:23;;;;;;;22.27;17.27;;;22.40;66.80;;;;;;5043486;28;20417;-72
2021/10/10 12:35:58;;;;;;;23.02;16.67;;;23.40;60.70;;;;;;5050035;28;20201;-72
2021/10/10 12:38:34;;;;;;;23.70;16.70;;;23.10;62.10;;;;;;5059806;28;20182;-73
2021/10/10 12:41:19;;;;;;;21.20;14.68;;;22.90;63.00;;;;;;5080305;28;20182;-72
2021/10/10 12:44:09;;;;;;;20.67;16.05;;;22.80;63.40;;;;;;5048988;28;20192;-72